createdAt,value
2022-08-04T00:00:28.037Z,18.51
2022-08-04T00:03:26.630Z,18.57
2022-08-04T00:06:37.330Z,18.73
2022-08-04T00:09:57.629Z,18.83
2022-08-04T00:12:42.010Z,18.85
2022-08-04T00:15:26.631Z,18.78
2022-08-04T00:18:15.399Z,18.70
2022-08-04T00:20:52.367Z,18.78
2022-08-04T00:24:12.131Z,18.80
2022-08-04T00:26:51.773Z,18.87
2022-08-04T00:29:35.084Z,18.86
2022-08-04T00:32:34.574Z,18.68
2022-08-04T00:35:15.087Z,18.60
2022-08-04T00:37:50.458Z,18.42
2022-08-04T00:40:48.988Z,18.43
2022-08-04T00:44:03.625Z,18.37
2022-08-04T00:47:01.349Z,18.53
2022-08-04T00:50:05.820Z,18.55
2022-08-04T00:53:14.404Z,18.50
2022-08-04T00:56:18.281Z,18.43
2022-08-04T00:59:06.987Z,18.36
2022-08-04T01:02:04.487Z,18.31
2022-08-04T01:04:54.753Z,18.43
2022-08-04T01:08:01.391Z,18.24
2022-08-04T01:11:15.030Z,18.10
2022-08-04T01:14:02.617Z,18.08
2022-08-04T01:17:02.072Z,18.04
2022-08-04T01:20:13.614Z,17.97
2022-08-04T01:22:49.422Z,17.94
2022-08-04T01:25:58.313Z,17.91
2022-08-04T01:28:36.045Z,17.81
2022-08-04T01:31:35.221Z,17.77
2022-08-04T01:34:14.707Z,17.68
2022-08-04T01:37:30.423Z,17.59
2022-08-04T01:40:10.568Z,17.58
2022-08-04T01:42:50.412Z,17.42
2022-08-04T01:45:28.399Z,17.45
2022-08-04T01:48:10.956Z,17.48
2022-08-04T01:50:45.531Z,17.43
2022-08-04T01:53:39.121Z,17.38
2022-08-04T01:56:25.778Z,17.38
2022-08-04T01:59:04.091Z,17.43
2022-08-04T02:01:39.213Z,17.32
2022-08-04T02:04:25.241Z,17.24
2022-08-04T02:07:26.099Z,17.19
2022-08-04T02:10:15.198Z,17.15
2022-08-04T02:13:10.892Z,17.11
2022-08-04T02:16:05.133Z,17.14
2022-08-04T02:19:18.442Z,17.12
2022-08-04T02:21:59.929Z,17.11
2022-08-04T02:24:48.732Z,17.08
2022-08-04T02:28:00.003Z,17.05
2022-08-04T02:30:39.244Z,17.03
2022-08-04T02:33:28.760Z,16.96
2022-08-04T02:36:09.365Z,16.95
2022-08-04T02:39:01.645Z,16.92
2022-08-04T02:41:43.718Z,16.89
2022-08-04T02:44:23.277Z,16.87
2022-08-04T02:47:09.369Z,16.81
2022-08-04T02:49:49.321Z,16.76
2022-08-04T02:52:38.441Z,16.78
2022-08-04T02:55:32.123Z,16.71
2022-08-04T02:58:21.407Z,16.71
2022-08-04T03:00:59.839Z,16.71
2022-08-04T03:04:04.080Z,16.60
2022-08-04T03:07:14.262Z,16.59
2022-08-04T03:10:48.362Z,16.54
2022-08-04T03:13:53.575Z,16.50
2022-08-04T03:17:03.080Z,16.52
2022-08-04T03:20:01.069Z,16.48
2022-08-04T03:23:14.666Z,16.42
2022-08-04T03:26:15.345Z,16.40
2022-08-04T03:29:36.681Z,16.40
2022-08-04T03:32:44.786Z,16.33
2022-08-04T03:35:36.389Z,16.26
2022-08-04T03:38:27.076Z,16.19
2022-08-04T03:41:55.069Z,16.28
2022-08-04T03:44:57.581Z,16.30
2022-08-04T03:48:23.795Z,16.47
2022-08-04T03:51:35.503Z,16.44
2022-08-04T03:54:55.103Z,16.46
2022-08-04T03:57:43.814Z,16.48
2022-08-04T04:00:53.438Z,16.47
2022-08-04T04:03:44.863Z,16.53
2022-08-04T04:07:00.914Z,16.53
2022-08-04T04:10:28.759Z,16.56
2022-08-04T04:13:19.126Z,16.63
2022-08-04T04:16:33.237Z,16.68
2022-08-04T04:19:35.781Z,16.74
2022-08-04T04:22:38.289Z,16.79
2022-08-04T04:25:25.034Z,16.89
2022-08-04T04:28:48.295Z,17.00
2022-08-04T04:32:15.189Z,17.03
2022-08-04T04:35:12.369Z,17.18
2022-08-04T04:38:17.409Z,17.30
2022-08-04T04:41:28.308Z,17.42
2022-08-04T04:44:30.436Z,17.57
2022-08-04T04:48:07.281Z,17.69
2022-08-04T04:50:56.609Z,17.87
2022-08-04T04:54:05.026Z,18.10
2022-08-04T04:56:43.629Z,18.26
2022-08-04T04:59:36.391Z,18.52
2022-08-04T05:02:42.977Z,18.78
2022-08-04T05:05:26.754Z,19.05
2022-08-04T05:08:44.231Z,19.35
2022-08-04T05:11:39.608Z,19.67
2022-08-04T05:14:38.861Z,20.08
2022-08-04T05:17:36.468Z,20.42
2022-08-04T05:20:40.526Z,20.77
2022-08-04T05:23:24.392Z,21.09
2022-08-04T05:26:11.781Z,21.41
2022-08-04T05:28:52.503Z,21.85
2022-08-04T05:31:40.689Z,22.16
2022-08-04T05:34:26.075Z,22.51
2022-08-04T05:37:20.761Z,22.90
2022-08-04T05:40:03.377Z,23.21
2022-08-04T05:42:42.827Z,23.48
2022-08-04T05:45:24.257Z,23.79
2022-08-04T05:48:01.392Z,24.02
2022-08-04T05:50:43.017Z,24.15
2022-08-04T05:53:24.639Z,24.35
2022-08-04T05:56:05.677Z,24.56
2022-08-04T05:58:50.510Z,24.81
2022-08-04T06:01:30.423Z,25.06
2022-08-04T06:04:13.429Z,25.24
2022-08-04T06:07:04.495Z,25.51
2022-08-04T06:09:35.604Z,25.70
2022-08-04T06:12:19.488Z,25.94
2022-08-04T06:14:59.474Z,26.22
2022-08-04T06:18:35.647Z,26.30
2022-08-04T06:21:16.417Z,26.40
2022-08-04T06:24:12.151Z,26.41
2022-08-04T06:26:50.653Z,26.55
2022-08-04T06:29:41.308Z,26.73
2022-08-04T06:32:47.815Z,26.84
2022-08-04T06:35:32.985Z,27.08
2022-08-04T06:38:18.238Z,27.21
2022-08-04T06:40:58.351Z,27.40
2022-08-04T06:43:43.054Z,27.35
2022-08-04T06:46:22.187Z,26.99
2022-08-04T06:49:06.653Z,27.02
2022-08-04T06:51:49.637Z,27.26
2022-08-04T06:54:27.577Z,27.64
2022-08-04T06:57:08.500Z,27.76
2022-08-04T06:59:49.381Z,28.31
2022-08-04T07:02:30.137Z,28.46
2022-08-04T07:05:21.401Z,28.68
2022-08-04T07:07:58.452Z,28.36
2022-08-04T07:10:40.113Z,28.97
2022-08-04T07:13:27.070Z,29.20
2022-08-04T07:16:04.407Z,29.24
2022-08-04T07:18:39.679Z,29.48
2022-08-04T07:21:27.391Z,29.45
2022-08-04T07:24:13.029Z,29.13
2022-08-04T07:26:52.418Z,29.31
2022-08-04T07:29:29.555Z,29.52
2022-08-04T07:32:14.411Z,29.54
2022-08-04T07:34:52.256Z,29.66
2022-08-04T07:37:38.943Z,29.66
2022-08-04T07:40:31.826Z,29.63
2022-08-04T07:43:10.855Z,29.63
2022-08-04T07:45:47.364Z,29.85
2022-08-04T07:48:31.419Z,29.66
2022-08-04T07:51:07.447Z,29.38
2022-08-04T07:53:55.011Z,29.34
2022-08-04T07:56:31.301Z,29.75
2022-08-04T07:59:13.243Z,29.46
2022-08-04T08:01:45.143Z,29.69
2022-08-04T08:04:18.755Z,29.48
2022-08-04T08:06:49.408Z,29.85
2022-08-04T08:09:25.321Z,29.94
2022-08-04T08:12:38.286Z,29.94
2022-08-04T08:14:56.321Z,30.26
2022-08-04T08:17:32.557Z,30.25
2022-08-04T08:20:29.921Z,30.26
2022-08-04T08:23:02.563Z,30.49
2022-08-04T08:25:41.213Z,30.58
2022-08-04T08:28:17.592Z,30.80
2022-08-04T08:30:59.452Z,31.04
2022-08-04T08:33:39.010Z,30.93
2022-08-04T08:37:03.834Z,31.00
2022-08-04T08:40:05.050Z,31.12
2022-08-04T08:44:03.804Z,31.30
2022-08-04T08:46:48.920Z,31.10
2022-08-04T08:50:03.061Z,30.91
2022-08-04T08:53:02.760Z,31.14
2022-08-04T08:56:18.144Z,31.22
2022-08-04T08:59:38.269Z,30.98
2022-08-04T09:02:49.759Z,31.00
2022-08-04T09:05:56.947Z,31.34
2022-08-04T09:08:55.679Z,31.55
2022-08-04T09:11:33.104Z,31.79
2022-08-04T09:14:48.614Z,31.98
2022-08-04T09:17:52.422Z,32.02
2022-08-04T09:21:17.235Z,31.78
2022-08-04T09:24:03.439Z,31.74
2022-08-04T09:27:27.760Z,32.07
2022-08-04T09:30:18.855Z,32.63
2022-08-04T09:33:45.405Z,32.71
2022-08-04T09:36:31.867Z,33.02
2022-08-04T09:39:36.205Z,32.89
2022-08-04T09:42:30.273Z,33.00
2022-08-04T09:45:39.177Z,33.35
2022-08-04T09:48:45.235Z,33.23
2022-08-04T09:51:58.768Z,32.69
2022-08-04T09:54:44.487Z,32.82
2022-08-04T09:57:41.382Z,32.82
2022-08-04T10:00:23.719Z,32.67
2022-08-04T10:03:23.509Z,32.99
2022-08-04T10:06:36.077Z,32.88
2022-08-04T10:09:51.035Z,32.63
2022-08-04T10:12:51.396Z,33.05
2022-08-04T10:15:41.692Z,33.27
2022-08-04T10:18:14.525Z,33.58
2022-08-04T10:21:19.616Z,33.13
2022-08-04T10:24:30.293Z,33.42
2022-08-04T10:27:31.423Z,32.86
2022-08-04T10:30:16.949Z,32.99
2022-08-04T10:33:10.926Z,33.42
2022-08-04T10:36:31.272Z,33.90
2022-08-04T10:39:42.831Z,33.79
2022-08-04T10:42:30.394Z,33.92
2022-08-04T10:45:18.399Z,33.16
2022-08-04T10:48:14.087Z,33.82
2022-08-04T10:50:58.469Z,34.16
2022-08-04T10:53:38.452Z,34.20
2022-08-04T10:56:22.589Z,33.91
2022-08-04T10:59:00.810Z,34.09
2022-08-04T11:01:50.543Z,34.42
2022-08-04T11:05:16.424Z,34.15
2022-08-04T11:07:52.502Z,34.28
2022-08-04T11:10:33.442Z,34.62
2022-08-04T11:13:21.869Z,34.50
2022-08-04T11:16:15.393Z,34.98
2022-08-04T11:19:23.491Z,35.32
2022-08-04T11:22:48.658Z,35.46
2022-08-04T11:25:35.991Z,35.23
2022-08-04T11:28:23.454Z,34.74
2022-08-04T11:31:18.499Z,34.69
2022-08-04T11:33:54.372Z,34.94
2022-08-04T11:36:33.814Z,35.15
2022-08-04T11:39:19.515Z,35.51
2022-08-04T11:42:07.796Z,35.75
2022-08-04T11:45:01.957Z,35.89
2022-08-04T11:47:41.691Z,35.32
2022-08-04T11:50:40.987Z,34.85
2022-08-04T11:53:19.507Z,35.04
2022-08-04T11:56:07.135Z,35.06
2022-08-04T11:58:50.121Z,34.77
2022-08-04T12:01:32.471Z,34.73
2022-08-04T12:04:50.398Z,34.50
2022-08-04T12:07:54.611Z,33.90
2022-08-04T12:10:48.653Z,33.89
2022-08-04T12:13:49.410Z,33.67
2022-08-04T12:16:30.370Z,33.18
2022-08-04T12:19:17.253Z,32.78
2022-08-04T12:21:57.412Z,32.67
2022-08-04T12:24:38.659Z,32.52
2022-08-04T12:27:19.527Z,32.44
2022-08-04T12:30:59.445Z,32.21
2022-08-04T12:33:10.197Z,32.25
2022-08-04T12:36:11.853Z,32.56
2022-08-04T12:39:04.274Z,33.42
2022-08-04T12:41:45.419Z,34.09
2022-08-04T12:44:33.347Z,34.73
2022-08-04T12:47:28.274Z,35.03
2022-08-04T12:50:19.777Z,35.15
2022-08-04T12:53:02.746Z,35.09
2022-08-04T12:56:01.729Z,35.09
2022-08-04T12:58:47.303Z,35.37
2022-08-04T13:02:07.221Z,35.82
2022-08-04T13:04:29.297Z,36.02
2022-08-04T13:07:22.244Z,36.27
2022-08-04T13:10:18.309Z,36.46
2022-08-04T13:13:06.990Z,36.28
2022-08-04T13:15:56.164Z,36.76
2022-08-04T13:18:30.459Z,36.84
2022-08-04T13:21:49.956Z,36.94
2022-08-04T13:24:31.126Z,36.21
2022-08-04T13:27:10.871Z,36.81
2022-08-04T13:30:00.714Z,37.06
2022-08-04T13:32:41.091Z,36.89
2022-08-04T13:35:13.335Z,37.02
2022-08-04T13:38:04.159Z,37.21
2022-08-04T13:40:40.100Z,37.45
2022-08-04T13:43:51.595Z,36.88
2022-08-04T13:46:33.858Z,36.61
2022-08-04T13:49:48.446Z,37.40
2022-08-04T13:52:15.454Z,37.49
2022-08-04T13:54:53.539Z,37.40
2022-08-04T13:57:47.666Z,36.85
2022-08-04T14:00:30.253Z,36.46
2022-08-04T14:03:23.722Z,36.75
2022-08-04T14:06:18.835Z,37.09
2022-08-04T14:09:02.059Z,36.49
2022-08-04T14:12:09.138Z,36.68
2022-08-04T14:14:39.429Z,37.01
2022-08-04T14:17:20.647Z,36.86
2022-08-04T14:20:01.913Z,36.96
2022-08-04T14:22:34.809Z,36.58
2022-08-04T14:25:16.718Z,36.59
2022-08-04T14:28:05.893Z,36.56
2022-08-04T14:30:44.034Z,37.15
2022-08-04T14:34:03.094Z,37.27
2022-08-04T14:36:04.627Z,37.43
2022-08-04T14:38:53.945Z,37.11
2022-08-04T14:41:33.451Z,37.55
2022-08-04T14:44:11.993Z,37.26
2022-08-04T14:47:03.465Z,37.61
2022-08-04T14:49:35.811Z,37.76
2022-08-04T14:52:13.490Z,37.52
2022-08-04T14:54:52.583Z,37.49
2022-08-04T14:57:33.237Z,37.66
2022-08-04T15:00:32.450Z,37.74
2022-08-04T15:03:08.806Z,38.05
2022-08-04T15:06:05.188Z,37.91
2022-08-04T15:08:38.377Z,37.96
2022-08-04T15:11:13.692Z,38.03
2022-08-04T15:14:08.697Z,38.15
2022-08-04T15:17:12.135Z,37.85
2022-08-04T15:20:11.554Z,37.59
2022-08-04T15:22:54.038Z,37.97
2022-08-04T15:25:39.952Z,37.88
2022-08-04T15:28:26.600Z,37.80
2022-08-04T15:31:10.313Z,37.75
2022-08-04T15:34:15.428Z,37.65
2022-08-04T15:36:58.221Z,36.94
2022-08-04T15:39:52.611Z,37.14
2022-08-04T15:42:59.535Z,36.82
2022-08-04T15:46:37.102Z,37.33
2022-08-04T15:48:56.099Z,37.06
2022-08-04T15:51:42.072Z,37.31
2022-08-04T15:54:27.701Z,37.20
2022-08-04T15:57:09.475Z,37.57
2022-08-04T16:00:22.281Z,37.41
2022-08-04T16:02:56.762Z,37.97
2022-08-04T16:05:43.432Z,38.23
2022-08-04T16:08:26.456Z,38.39
2022-08-04T16:11:08.475Z,39.00
2022-08-04T16:14:07.739Z,39.35
2022-08-04T16:16:45.214Z,39.38
2022-08-04T16:19:35.089Z,40.15
2022-08-04T16:22:38.532Z,40.40
2022-08-04T16:25:12.456Z,40.61
2022-08-04T16:27:44.414Z,40.55
2022-08-04T16:30:18.340Z,41.13
2022-08-04T16:32:51.430Z,41.13
2022-08-04T16:35:27.504Z,41.94
2022-08-04T16:38:15.680Z,42.11
2022-08-04T16:41:02.299Z,42.66
2022-08-04T16:43:51.402Z,43.01
2022-08-04T16:47:08.623Z,43.45
2022-08-04T16:49:36.558Z,42.49
2022-08-04T16:52:33.852Z,43.06
2022-08-04T16:55:09.572Z,43.19
2022-08-04T16:57:45.395Z,43.35
2022-08-04T17:00:15.031Z,43.04
2022-08-04T17:02:53.635Z,43.43
2022-08-04T17:05:39.029Z,43.34
2022-08-04T17:08:29.737Z,43.10
2022-08-04T17:11:03.246Z,42.79
2022-08-04T17:14:02.201Z,42.15
2022-08-04T17:16:58.437Z,41.52
2022-08-04T17:19:36.596Z,40.89
2022-08-04T17:22:10.675Z,40.43
2022-08-04T17:24:48.235Z,39.85
2022-08-04T17:28:19.054Z,39.06
2022-08-04T17:30:35.656Z,38.36
2022-08-04T17:33:06.459Z,37.72
2022-08-04T17:35:54.761Z,36.99
2022-08-04T17:38:39.507Z,35.96
2022-08-04T17:41:19.083Z,34.59
2022-08-04T17:44:12.079Z,32.76
2022-08-04T17:46:48.132Z,31.59
2022-08-04T17:49:24.348Z,31.22
2022-08-04T17:52:02.626Z,30.96
2022-08-04T17:54:44.321Z,30.72
2022-08-04T17:57:21.556Z,30.45
2022-08-04T18:00:01.307Z,30.27
2022-08-04T18:02:54.505Z,30.01
2022-08-04T18:06:01.812Z,29.78
2022-08-04T18:08:39.661Z,29.52
2022-08-04T18:11:29.663Z,29.33
2022-08-04T18:14:25.995Z,29.07
2022-08-04T18:17:04.237Z,28.94
2022-08-04T18:19:55.585Z,28.81
2022-08-04T18:22:34.233Z,28.60
2022-08-04T18:25:18.530Z,28.41
2022-08-04T18:27:58.586Z,28.25
2022-08-04T18:30:55.621Z,28.20
2022-08-04T18:33:39.865Z,28.07
2022-08-04T18:36:32.978Z,27.99
2022-08-04T18:39:16.216Z,27.87
2022-08-04T18:42:02.466Z,27.84
2022-08-04T18:44:53.229Z,27.69
2022-08-04T18:47:58.669Z,27.66
2022-08-04T18:51:09.512Z,27.46
2022-08-04T18:53:35.736Z,27.38
2022-08-04T18:56:19.912Z,27.39
2022-08-04T18:59:10.166Z,27.33
2022-08-04T19:02:12.279Z,27.20
2022-08-04T19:04:53.539Z,27.16
2022-08-04T19:08:02.634Z,27.04
2022-08-04T19:10:34.865Z,26.99
2022-08-04T19:13:24.837Z,26.81
2022-08-04T19:15:59.117Z,26.68
2022-08-04T19:18:48.576Z,26.50
2022-08-04T19:21:58.654Z,26.31
2022-08-04T19:24:32.094Z,26.01
2022-08-04T19:27:07.417Z,25.69
2022-08-04T19:29:50.384Z,25.50
2022-08-04T19:32:26.498Z,25.36
2022-08-04T19:35:02.554Z,25.11
2022-08-04T19:37:58.203Z,25.03
2022-08-04T19:40:36.997Z,24.84
2022-08-04T19:43:16.002Z,24.60
2022-08-04T19:45:56.717Z,24.47
2022-08-04T19:48:35.974Z,24.41
2022-08-04T19:51:15.352Z,24.36
2022-08-04T19:54:08.073Z,24.37
2022-08-04T19:57:03.970Z,24.31
2022-08-04T19:59:36.618Z,24.23
2022-08-04T20:02:20.121Z,24.20
2022-08-04T20:05:04.735Z,24.11
2022-08-04T20:07:52.405Z,23.99
2022-08-04T20:10:23.718Z,23.89
2022-08-04T20:13:10.623Z,23.79
2022-08-04T20:15:57.415Z,23.64
2022-08-04T20:18:55.596Z,23.49
2022-08-04T20:21:54.067Z,23.32
2022-08-04T20:28:00.501Z,23.26
2022-08-04T20:30:34.465Z,23.15
2022-08-04T20:33:23.446Z,23.03
2022-08-04T20:36:11.654Z,22.99
2022-08-04T20:38:52.002Z,22.99
2022-08-04T20:41:36.706Z,22.99
2022-08-04T20:44:18.730Z,22.97
2022-08-04T20:46:55.429Z,22.88
2022-08-04T20:49:36.486Z,22.82
2022-08-04T20:52:20.577Z,22.73
2022-08-04T20:55:00.003Z,22.55
2022-08-04T20:57:47.922Z,22.48
2022-08-04T21:00:30.316Z,22.45
2022-08-04T21:03:11.473Z,22.34
2022-08-04T21:05:57.652Z,22.31
2022-08-04T21:08:30.834Z,22.27
2022-08-04T21:11:17.770Z,22.26
2022-08-04T21:13:52.792Z,22.19
2022-08-04T21:16:55.744Z,22.16
2022-08-04T21:19:32.433Z,22.18
2022-08-04T21:22:14.266Z,22.18
2022-08-04T21:25:06.446Z,22.16
2022-08-04T21:27:39.450Z,22.09
2022-08-04T21:30:23.837Z,22.04
2022-08-04T21:33:06.495Z,22.01
2022-08-04T21:35:54.339Z,21.98
2022-08-04T21:38:28.380Z,21.91
2022-08-04T21:41:03.668Z,21.83
2022-08-04T21:43:42.643Z,21.72
2022-08-04T21:46:24.154Z,21.71
2022-08-04T21:49:03.256Z,21.66
2022-08-04T21:52:00.282Z,21.61
2022-08-04T21:54:39.508Z,21.64
2022-08-04T21:57:17.077Z,21.68
2022-08-04T22:00:00.963Z,22.02
2022-08-04T22:02:43.242Z,22.14
2022-08-04T22:05:32.674Z,22.24
2022-08-04T22:08:19.547Z,22.42
2022-08-04T22:11:01.130Z,22.51
2022-08-04T22:13:52.406Z,22.51
2022-08-04T22:16:30.020Z,22.62
2022-08-04T22:19:13.655Z,22.70
2022-08-04T22:21:56.616Z,22.67
2022-08-04T22:24:39.539Z,22.69
2022-08-04T22:27:36.157Z,22.64
2022-08-04T22:30:18.495Z,22.65
2022-08-04T22:32:56.530Z,22.71
2022-08-04T22:35:43.755Z,22.56
2022-08-04T22:38:27.893Z,22.54
2022-08-04T22:41:17.275Z,22.44
2022-08-04T22:44:00.993Z,22.23
2022-08-04T22:46:45.463Z,21.96
2022-08-04T22:49:31.932Z,21.74
2022-08-04T22:52:26.208Z,21.64
2022-08-04T22:55:11.456Z,21.38
2022-08-04T22:58:04.992Z,21.38
2022-08-04T23:00:53.055Z,21.36
2022-08-04T23:03:37.269Z,21.33
2022-08-04T23:06:24.430Z,21.09
2022-08-04T23:09:06.404Z,20.99
2022-08-04T23:12:08.602Z,20.94
2022-08-04T23:14:56.893Z,20.63
2022-08-04T23:17:43.841Z,20.53
2022-08-04T23:20:32.930Z,20.54
2022-08-04T23:23:14.857Z,20.31
2022-08-04T23:26:11.044Z,20.38
2022-08-04T23:28:56.872Z,20.26
2022-08-04T23:31:41.009Z,20.27
2022-08-04T23:34:29.134Z,20.30
2022-08-04T23:37:08.655Z,20.24
2022-08-04T23:40:15.438Z,20.21
2022-08-04T23:42:45.214Z,20.11
2022-08-04T23:45:24.532Z,19.94
2022-08-04T23:48:20.887Z,19.87
2022-08-04T23:51:04.559Z,19.76
2022-08-04T23:54:03.674Z,19.66
2022-08-04T23:56:40.429Z,19.56
2022-08-04T23:59:49.159Z,19.51
